createdAt,value
2023-01-18T00:00:37.694Z,2.65
2023-01-18T00:03:05.698Z,2.67
2023-01-18T00:05:33.616Z,2.68
2023-01-18T00:08:00.834Z,2.68
2023-01-18T00:10:27.934Z,2.68
2023-01-18T00:12:55.547Z,2.88
2023-01-18T00:15:22.800Z,2.90
2023-01-18T00:17:52.708Z,2.83
2023-01-18T00:20:22.378Z,2.80
2023-01-18T00:22:56.102Z,2.82
2023-01-18T00:25:24.317Z,2.85
2023-01-18T00:27:53.311Z,2.80
2023-01-18T00:30:22.688Z,2.76
2023-01-18T00:32:52.571Z,2.76
2023-01-18T00:35:22.221Z,2.76
2023-01-18T00:37:50.230Z,2.73
2023-01-18T00:40:17.821Z,2.74
2023-01-18T00:43:03.611Z,2.76
2023-01-18T00:45:30.860Z,2.75
2023-01-18T00:47:58.339Z,2.77
2023-01-18T00:50:25.488Z,2.78
2023-01-18T00:52:56.934Z,2.74
2023-01-18T00:55:24.543Z,2.72
2023-01-18T00:57:51.773Z,2.81
2023-01-18T01:00:19.033Z,2.78
2023-01-18T01:02:46.496Z,2.75
2023-01-18T01:05:40.214Z,2.71
2023-01-18T01:08:07.434Z,2.71
2023-01-18T01:10:34.953Z,2.68
2023-01-18T01:13:20.821Z,2.65
2023-01-18T01:16:06.686Z,2.67
2023-01-18T01:18:52.536Z,2.65
2023-01-18T01:21:38.864Z,2.64
2023-01-18T01:24:24.960Z,2.67
2023-01-18T01:26:54.817Z,2.73
2023-01-18T01:29:22.301Z,2.72
2023-01-18T01:31:49.533Z,2.72
2023-01-18T01:34:16.606Z,2.80
2023-01-18T01:36:43.854Z,2.91
2023-01-18T01:39:11.058Z,2.84
2023-01-18T01:41:38.344Z,2.82
2023-01-18T01:44:17.478Z,2.79
2023-01-18T01:46:47.737Z,2.79
2023-01-18T01:49:23.996Z,2.80
2023-01-18T01:51:56.892Z,2.81
2023-01-18T01:54:26.937Z,2.81
2023-01-18T01:56:57.012Z,2.72
2023-01-18T01:59:24.396Z,2.71
2023-01-18T02:01:51.718Z,2.90
2023-01-18T02:04:19.628Z,2.88
2023-01-18T02:06:46.606Z,2.80
2023-01-18T02:09:15.656Z,2.80
2023-01-18T02:11:43.327Z,2.84
2023-01-18T02:14:13.020Z,2.77
2023-01-18T02:17:08.777Z,2.73
2023-01-18T02:19:35.869Z,2.69
2023-01-18T02:22:02.839Z,2.71
2023-01-18T02:24:29.942Z,2.76
2023-01-18T02:27:11.500Z,2.75
2023-01-18T02:29:50.874Z,2.65
2023-01-18T02:32:17.997Z,2.69
2023-01-18T02:34:44.941Z,2.64
2023-01-18T02:37:12.024Z,2.58
2023-01-18T02:39:41.920Z,2.61
2023-01-18T02:42:36.328Z,2.56
2023-01-18T02:45:35.002Z,2.50
2023-01-18T02:48:03.815Z,2.62
2023-01-18T02:50:30.900Z,2.62
2023-01-18T02:52:58.312Z,2.62
2023-01-18T02:55:44.083Z,2.59
2023-01-18T02:58:15.725Z,2.66
2023-01-18T03:00:46.174Z,2.46
2023-01-18T03:03:14.929Z,2.65
2023-01-18T03:05:43.514Z,2.58
2023-01-18T03:08:14.605Z,2.47
2023-01-18T03:10:49.953Z,2.50
2023-01-18T03:13:23.356Z,2.44
2023-01-18T03:15:50.439Z,2.42
2023-01-18T03:18:26.684Z,2.44
2023-01-18T03:20:55.779Z,2.45
2023-01-18T03:23:39.835Z,2.55
2023-01-18T03:26:11.893Z,2.53
2023-01-18T03:29:00.202Z,2.74
2023-01-18T03:31:46.029Z,2.75
2023-01-18T03:34:18.202Z,2.58
2023-01-18T03:36:48.771Z,2.62
2023-01-18T03:39:19.304Z,2.56
2023-01-18T03:41:48.924Z,2.56
2023-01-18T03:44:22.561Z,2.43
2023-01-18T03:46:50.032Z,2.44
2023-01-18T03:49:18.146Z,2.44
2023-01-18T03:51:51.794Z,2.44
2023-01-18T03:54:21.944Z,2.47
2023-01-18T03:56:52.210Z,2.40
2023-01-18T03:59:19.235Z,2.54
2023-01-18T04:01:48.187Z,2.44
2023-01-18T04:04:15.253Z,2.41
2023-01-18T04:06:42.513Z,2.38
2023-01-18T04:09:11.855Z,2.40
2023-01-18T04:11:38.981Z,2.36
2023-01-18T04:14:06.303Z,2.30
2023-01-18T04:16:33.741Z,2.33
2023-01-18T04:19:00.757Z,2.26
2023-01-18T04:21:27.745Z,2.11
2023-01-18T04:23:54.947Z,2.05
2023-01-18T04:26:22.004Z,2.05
2023-01-18T04:28:49.163Z,2.03
2023-01-18T04:31:16.187Z,2.01
2023-01-18T04:33:43.285Z,2.06
2023-01-18T04:36:10.304Z,2.09
2023-01-18T04:38:37.459Z,2.09
2023-01-18T04:41:05.271Z,2.08
2023-01-18T04:43:32.438Z,1.96
2023-01-18T04:45:59.556Z,1.97
2023-01-18T04:48:26.778Z,2.03
2023-01-18T04:50:53.995Z,2.05
2023-01-18T04:53:21.590Z,2.14
2023-01-18T04:55:51.023Z,2.08
2023-01-18T04:58:18.093Z,2.11
2023-01-18T05:00:45.203Z,2.28
2023-01-18T05:03:12.388Z,2.26
2023-01-18T05:05:40.017Z,2.28
2023-01-18T05:08:07.065Z,2.41
2023-01-18T05:10:34.127Z,2.32
2023-01-18T05:13:01.718Z,2.30
2023-01-18T05:15:28.913Z,2.32
2023-01-18T05:17:56.027Z,2.42
2023-01-18T05:20:23.061Z,2.57
2023-01-18T05:22:50.141Z,2.36
2023-01-18T05:25:17.238Z,2.46
2023-01-18T05:27:44.400Z,2.31
2023-01-18T05:30:11.545Z,2.22
2023-01-18T05:32:38.952Z,2.22
2023-01-18T05:35:06.167Z,2.24
2023-01-18T05:37:33.285Z,2.42
2023-01-18T05:40:00.366Z,2.34
2023-01-18T05:42:27.367Z,2.24
2023-01-18T05:44:54.623Z,2.22
2023-01-18T05:47:21.763Z,2.24
2023-01-18T05:49:49.515Z,2.24
2023-01-18T05:52:17.044Z,2.30
2023-01-18T05:54:45.184Z,2.29
2023-01-18T05:57:12.228Z,2.23
2023-01-18T05:59:39.467Z,2.20
2023-01-18T06:02:06.613Z,2.19
2023-01-18T06:04:33.827Z,2.11
2023-01-18T06:07:00.845Z,2.12
2023-01-18T06:09:29.990Z,2.17
2023-01-18T06:11:57.291Z,2.17
2023-01-18T06:14:24.856Z,2.18
2023-01-18T06:16:51.914Z,2.11
2023-01-18T06:19:19.128Z,2.12
2023-01-18T06:21:47.578Z,2.14
2023-01-18T06:24:14.666Z,2.12
2023-01-18T06:26:41.680Z,2.12
2023-01-18T06:29:08.884Z,2.27
2023-01-18T06:31:36.042Z,2.38
2023-01-18T06:34:09.148Z,2.34
2023-01-18T06:36:36.948Z,2.21
2023-01-18T06:39:04.049Z,2.19
2023-01-18T06:41:31.678Z,2.16
2023-01-18T06:43:58.685Z,2.12
2023-01-18T06:46:26.371Z,2.14
2023-01-18T06:48:53.369Z,2.12
2023-01-18T06:51:22.017Z,2.20
2023-01-18T06:53:50.086Z,2.23
2023-01-18T06:56:18.022Z,2.30
2023-01-18T06:58:45.191Z,2.19
2023-01-18T07:01:12.294Z,2.17
2023-01-18T07:03:39.321Z,2.18
2023-01-18T07:06:07.555Z,2.17
2023-01-18T07:08:35.563Z,2.21
2023-01-18T07:11:07.448Z,2.18
2023-01-18T07:13:34.789Z,2.20
2023-01-18T07:16:04.754Z,2.34
2023-01-18T07:18:32.111Z,2.20
2023-01-18T07:21:00.254Z,2.15
2023-01-18T07:23:28.271Z,2.25
2023-01-18T07:26:00.892Z,2.24
2023-01-18T07:28:28.198Z,2.18
2023-01-18T07:30:55.387Z,2.24
2023-01-18T07:33:22.486Z,2.26
2023-01-18T07:35:51.738Z,2.24
2023-01-18T07:38:19.805Z,2.15
2023-01-18T07:40:47.383Z,2.23
2023-01-18T07:43:15.805Z,2.27
2023-01-18T07:45:43.125Z,2.15
2023-01-18T07:48:10.598Z,2.14
2023-01-18T07:50:38.001Z,2.08
2023-01-18T07:53:10.421Z,2.05
2023-01-18T07:55:40.617Z,2.05
2023-01-18T07:58:09.341Z,2.26
2023-01-18T08:00:37.154Z,2.14
2023-01-18T08:03:04.841Z,2.14
2023-01-18T08:05:33.991Z,1.91
2023-01-18T08:08:01.083Z,1.84
2023-01-18T08:10:28.417Z,1.87
2023-01-18T08:12:55.591Z,1.81
2023-01-18T08:15:22.949Z,1.79
2023-01-18T08:17:51.230Z,1.74
2023-01-18T08:20:18.462Z,1.76
2023-01-18T08:22:49.042Z,1.75
2023-01-18T08:25:17.405Z,1.75
2023-01-18T08:27:44.483Z,1.75
2023-01-18T08:30:11.668Z,1.74
2023-01-18T08:32:39.256Z,1.80
2023-01-18T08:35:07.181Z,1.82
2023-01-18T08:37:34.409Z,1.85
2023-01-18T08:40:01.474Z,1.84
2023-01-18T08:42:29.257Z,1.85
2023-01-18T08:44:56.984Z,1.92
2023-01-18T08:47:24.747Z,1.97
2023-01-18T08:49:52.013Z,1.95
2023-01-18T08:52:19.157Z,2.02
2023-01-18T08:54:46.364Z,2.10
2023-01-18T08:57:13.579Z,2.28
2023-01-18T08:59:40.743Z,2.34
2023-01-18T09:02:09.961Z,2.34
2023-01-18T09:04:37.669Z,2.39
2023-01-18T09:07:06.025Z,2.35
2023-01-18T09:09:34.938Z,2.36
2023-01-18T09:12:02.005Z,2.24
2023-01-18T09:14:29.255Z,2.33
2023-01-18T09:16:56.453Z,2.26
2023-01-18T09:19:23.612Z,2.24
2023-01-18T09:21:51.383Z,2.38
2023-01-18T09:24:18.569Z,2.52
2023-01-18T09:26:47.253Z,2.59
2023-01-18T09:29:14.812Z,2.57
2023-01-18T09:31:45.179Z,2.59
2023-01-18T09:34:19.691Z,2.51
2023-01-18T09:36:53.948Z,2.61
2023-01-18T09:39:22.815Z,2.66
2023-01-18T09:41:54.657Z,2.65
2023-01-18T09:44:35.694Z,2.52
2023-01-18T09:47:06.841Z,2.58
2023-01-18T09:49:43.628Z,2.56
2023-01-18T09:52:20.586Z,2.67
2023-01-18T09:55:04.557Z,2.69
2023-01-18T09:57:47.077Z,2.62
2023-01-18T10:00:17.132Z,2.55
2023-01-18T10:02:46.893Z,2.76
2023-01-18T10:05:22.169Z,2.67
2023-01-18T10:08:02.401Z,2.57
2023-01-18T10:10:36.261Z,2.66
2023-01-18T10:13:25.588Z,2.67
2023-01-18T10:15:52.962Z,2.71
2023-01-18T10:18:20.114Z,2.87
2023-01-18T10:21:02.190Z,2.75
2023-01-18T10:23:29.254Z,2.73
2023-01-18T10:26:03.108Z,2.58
2023-01-18T10:28:39.612Z,2.55
2023-01-18T10:31:06.933Z,2.53
2023-01-18T10:33:36.227Z,2.69
2023-01-18T10:36:06.724Z,2.58
2023-01-18T10:38:35.086Z,2.53
2023-01-18T10:41:02.821Z,2.53
2023-01-18T10:43:31.778Z,2.58
2023-01-18T10:45:58.974Z,2.52
2023-01-18T10:48:26.286Z,2.51
2023-01-18T10:51:01.236Z,2.50
2023-01-18T10:53:33.131Z,2.53
2023-01-18T10:56:14.544Z,2.64
2023-01-18T10:58:50.962Z,2.55
2023-01-18T11:01:22.526Z,2.45
2023-01-18T11:03:51.724Z,2.52
2023-01-18T11:06:20.675Z,2.49
2023-01-18T11:08:50.090Z,2.71
2023-01-18T11:11:46.681Z,2.74
2023-01-18T11:14:23.820Z,2.75
2023-01-18T11:16:58.115Z,2.78
2023-01-18T11:19:26.097Z,2.77
2023-01-18T11:21:53.789Z,2.95
2023-01-18T11:24:28.748Z,2.96
2023-01-18T11:27:04.528Z,2.95
2023-01-18T11:29:35.647Z,3.13
2023-01-18T11:32:07.188Z,3.27
2023-01-18T11:34:36.052Z,3.39
2023-01-18T11:37:04.086Z,3.42
2023-01-18T11:39:37.439Z,3.50
2023-01-18T11:42:10.364Z,3.42
2023-01-18T11:44:40.325Z,3.58
2023-01-18T11:47:12.453Z,3.66
2023-01-18T11:49:44.971Z,3.86
2023-01-18T11:52:21.389Z,3.86
2023-01-18T11:54:53.339Z,3.98
2023-01-18T11:57:20.699Z,4.20
2023-01-18T11:59:49.158Z,4.26
2023-01-18T12:02:25.641Z,4.35
2023-01-18T12:04:52.758Z,4.32
2023-01-18T12:07:26.127Z,4.36
2023-01-18T12:09:57.372Z,4.43
2023-01-18T12:12:27.547Z,4.52
2023-01-18T12:14:54.679Z,4.46
2023-01-18T12:17:46.221Z,4.48
2023-01-18T12:20:36.403Z,4.51
2023-01-18T12:23:11.901Z,4.56
2023-01-18T12:26:11.353Z,4.74
2023-01-18T12:28:39.529Z,4.53
2023-01-18T12:31:25.523Z,4.44
2023-01-18T12:34:00.464Z,4.43
2023-01-18T12:36:35.245Z,4.42
2023-01-18T12:39:08.510Z,4.38
2023-01-18T12:42:08.375Z,4.47
2023-01-18T12:44:54.093Z,4.42
2023-01-18T12:47:34.799Z,4.36
2023-01-18T12:50:08.658Z,4.34
2023-01-18T12:52:42.585Z,4.39
2023-01-18T12:55:21.368Z,4.31
2023-01-18T12:57:54.952Z,4.29
2023-01-18T13:00:43.762Z,4.20
2023-01-18T13:03:13.623Z,4.24
2023-01-18T13:05:52.393Z,4.13
2023-01-18T13:08:28.350Z,4.13
2023-01-18T13:10:59.323Z,4.10
2023-01-18T13:13:28.766Z,4.05
2023-01-18T13:16:02.078Z,3.98
2023-01-18T13:18:52.619Z,3.92
2023-01-18T13:21:28.064Z,3.76
2023-01-18T13:24:11.297Z,3.72
2023-01-18T13:26:38.600Z,3.68
2023-01-18T13:29:08.073Z,3.69
2023-01-18T13:31:35.316Z,3.75
2023-01-18T13:34:04.018Z,3.73
2023-01-18T13:36:44.847Z,3.74
2023-01-18T13:39:16.672Z,3.92
2023-01-18T13:42:13.313Z,3.85
2023-01-18T13:44:43.634Z,3.97
2023-01-18T13:47:31.986Z,3.97
2023-01-18T13:49:59.219Z,3.87
2023-01-18T13:52:30.654Z,3.88
2023-01-18T13:55:01.788Z,3.85
2023-01-18T13:57:33.949Z,3.97
2023-01-18T14:00:03.550Z,3.97
2023-01-18T14:02:42.424Z,4.03
2023-01-18T14:05:19.881Z,4.02
2023-01-18T14:07:50.375Z,4.04
2023-01-18T14:10:25.408Z,4.02
2023-01-18T14:12:56.200Z,4.02
2023-01-18T14:15:25.882Z,4.01
2023-01-18T14:17:58.587Z,4.03
2023-01-18T14:20:29.152Z,4.16
2023-01-18T14:23:25.797Z,4.19
2023-01-18T14:25:58.749Z,4.10
2023-01-18T14:28:31.690Z,4.07
2023-01-18T14:31:01.105Z,4.27
2023-01-18T14:33:40.515Z,4.32
2023-01-18T14:36:20.594Z,4.22
2023-01-18T14:38:47.886Z,4.22
2023-01-18T14:41:17.161Z,4.17
2023-01-18T14:43:46.178Z,4.14
2023-01-18T14:46:16.151Z,4.22
2023-01-18T14:48:52.026Z,4.20
2023-01-18T14:51:22.938Z,4.19
2023-01-18T14:58:02.622Z,4.16
2023-01-18T15:00:30.048Z,4.16
2023-01-18T15:02:57.728Z,4.16
2023-01-18T15:05:28.053Z,4.14
2023-01-18T15:07:56.285Z,4.13
2023-01-18T15:10:26.158Z,4.03
2023-01-18T15:12:56.782Z,3.96
2023-01-18T15:15:30.487Z,4.00
2023-01-18T15:18:04.367Z,3.99
2023-01-18T15:20:39.411Z,3.84
2023-01-18T15:23:06.851Z,3.84
2023-01-18T15:25:34.131Z,3.86
2023-01-18T15:28:22.399Z,3.82
2023-01-18T15:30:52.860Z,3.78
2023-01-18T15:33:21.352Z,3.89
2023-01-18T15:35:57.519Z,3.70
2023-01-18T15:38:24.852Z,3.74
2023-01-18T15:40:58.350Z,3.89
2023-01-18T15:43:35.093Z,3.83
2023-01-18T15:46:08.214Z,3.86
2023-01-18T15:48:38.066Z,3.82
2023-01-18T15:51:08.995Z,3.78
2023-01-18T15:53:46.006Z,3.83
2023-01-18T15:56:18.869Z,3.78
2023-01-18T15:58:47.785Z,3.75
2023-01-18T16:01:16.364Z,3.82
2023-01-18T16:03:49.919Z,3.88
2023-01-18T16:06:50.008Z,3.81
2023-01-18T16:09:18.641Z,3.79
2023-01-18T16:11:55.363Z,3.84
2023-01-18T16:14:28.811Z,3.76
2023-01-18T16:16:57.271Z,3.73
2023-01-18T16:19:36.360Z,3.70
2023-01-18T16:22:16.852Z,3.61
2023-01-18T16:24:47.238Z,3.56
2023-01-18T16:27:18.930Z,3.58
2023-01-18T16:29:47.415Z,3.62
2023-01-18T16:32:17.202Z,3.67
2023-01-18T16:34:44.400Z,3.70
2023-01-18T16:37:11.737Z,3.66
2023-01-18T16:39:40.202Z,3.75
2023-01-18T16:42:09.270Z,3.74
2023-01-18T16:44:37.135Z,3.71
2023-01-18T16:47:04.525Z,3.68
2023-01-18T16:49:31.667Z,3.66
2023-01-18T16:51:59.182Z,3.64
2023-01-18T16:54:26.239Z,3.63
2023-01-18T16:56:53.378Z,3.60
2023-01-18T16:59:23.958Z,3.67
2023-01-18T17:01:54.041Z,3.71
2023-01-18T17:04:21.511Z,3.59
2023-01-18T17:06:48.819Z,3.57
2023-01-18T17:09:23.221Z,3.56
2023-01-18T17:11:50.722Z,3.57
2023-01-18T17:14:18.314Z,3.57
2023-01-18T17:16:46.615Z,3.56
2023-01-18T17:19:15.186Z,3.60
2023-01-18T17:21:42.854Z,3.64
2023-01-18T17:24:10.704Z,3.67
2023-01-18T17:26:39.051Z,3.68
2023-01-18T17:29:06.804Z,3.66
2023-01-18T17:31:41.641Z,3.68
2023-01-18T17:34:16.926Z,3.64
2023-01-18T17:36:45.626Z,3.62
2023-01-18T17:39:14.765Z,3.63
2023-01-18T17:41:42.419Z,3.61
2023-01-18T17:44:10.161Z,3.58
2023-01-18T17:46:37.428Z,3.60
2023-01-18T17:49:04.640Z,3.59
2023-01-18T17:51:32.727Z,3.60
2023-01-18T17:54:02.132Z,3.60
2023-01-18T17:56:30.832Z,3.60
2023-01-18T17:58:58.038Z,3.57
2023-01-18T18:01:25.429Z,3.61
2023-01-18T18:03:52.699Z,3.62
2023-01-18T18:06:30.204Z,3.59
2023-01-18T18:08:59.005Z,3.58
2023-01-18T18:11:26.166Z,3.55
2023-01-18T18:13:54.232Z,3.54
2023-01-18T18:16:23.895Z,3.57
2023-01-18T18:18:51.306Z,3.56
2023-01-18T18:21:18.906Z,3.52
2023-01-18T18:23:46.459Z,3.56
2023-01-18T18:26:13.720Z,3.59
2023-01-18T18:28:41.870Z,3.58
2023-01-18T18:31:13.847Z,3.56
2023-01-18T18:33:41.191Z,3.54
2023-01-18T18:36:13.621Z,3.53
2023-01-18T18:38:40.824Z,3.55
2023-01-18T18:41:08.915Z,3.61
2023-01-18T18:43:36.253Z,3.60
2023-01-18T18:46:04.219Z,3.65
2023-01-18T18:48:31.351Z,3.58
2023-01-18T18:50:58.561Z,3.71
2023-01-18T18:53:37.028Z,3.57
2023-01-18T18:56:06.975Z,3.55
2023-01-18T18:58:34.126Z,3.44
2023-01-18T19:01:05.058Z,3.38
2023-01-18T19:03:32.765Z,3.35
2023-01-18T19:06:00.154Z,3.28
2023-01-18T19:08:27.481Z,3.27
2023-01-18T19:10:56.098Z,3.26
2023-01-18T19:13:26.304Z,3.25
2023-01-18T19:15:54.499Z,3.41
2023-01-18T19:18:22.496Z,3.44
2023-01-18T19:20:50.842Z,3.40
2023-01-18T19:23:18.368Z,3.39
2023-01-18T19:25:47.098Z,3.39
2023-01-18T19:28:16.035Z,3.39
2023-01-18T19:30:43.694Z,3.40
2023-01-18T19:33:11.727Z,3.37
2023-01-18T19:35:40.917Z,3.37
2023-01-18T19:38:08.545Z,3.38
2023-01-18T19:40:36.427Z,3.43
2023-01-18T19:43:03.896Z,3.45
2023-01-18T19:45:31.713Z,3.40
2023-01-18T19:47:59.961Z,3.38
2023-01-18T19:50:28.013Z,3.36
2023-01-18T19:52:55.316Z,3.39
2023-01-18T19:55:22.789Z,3.39
2023-01-18T19:57:51.006Z,3.40
2023-01-18T20:00:18.469Z,3.41
2023-01-18T20:02:45.818Z,3.44
2023-01-18T20:05:13.066Z,3.42
2023-01-18T20:07:40.525Z,3.47
2023-01-18T20:10:07.835Z,3.54
2023-01-18T20:12:35.149Z,3.51
2023-01-18T20:15:02.697Z,3.53
2023-01-18T20:17:30.528Z,3.50
2023-01-18T20:19:57.628Z,3.49
2023-01-18T20:22:25.097Z,3.57
2023-01-18T20:24:52.330Z,3.51
2023-01-18T20:27:19.902Z,3.42
2023-01-18T20:29:47.195Z,3.39
2023-01-18T20:32:16.981Z,3.33
2023-01-18T20:34:46.421Z,3.34
2023-01-18T20:37:14.390Z,3.24
2023-01-18T20:39:41.448Z,3.25
2023-01-18T20:42:08.734Z,3.28
2023-01-18T20:44:36.186Z,3.22
2023-01-18T20:47:03.451Z,3.46
2023-01-18T20:49:37.713Z,3.34
2023-01-18T20:52:06.938Z,3.18
2023-01-18T20:54:36.008Z,2.96
2023-01-18T20:57:04.806Z,2.71
2023-01-18T20:59:32.136Z,2.64
2023-01-18T21:01:59.636Z,2.56
2023-01-18T21:04:27.313Z,2.37
2023-01-18T21:06:57.285Z,2.30
2023-01-18T21:09:25.594Z,2.31
2023-01-18T21:11:55.149Z,2.28
2023-01-18T21:14:22.518Z,2.27
2023-01-18T21:16:50.002Z,2.33
2023-01-18T21:19:18.248Z,2.22
2023-01-18T21:21:45.629Z,2.31
2023-01-18T21:24:12.969Z,2.36
2023-01-18T21:26:40.141Z,2.41
2023-01-18T21:29:07.433Z,2.47
2023-01-18T21:31:35.102Z,2.48
2023-01-18T21:34:02.508Z,2.48
2023-01-18T21:36:29.763Z,2.48
2023-01-18T21:38:57.087Z,2.51
2023-01-18T21:41:43.066Z,2.57
2023-01-18T21:44:29.558Z,2.63
2023-01-18T21:46:56.629Z,2.65
2023-01-18T21:50:11.336Z,2.69
2023-01-18T21:52:48.840Z,2.72
2023-01-18T21:55:16.830Z,2.79
2023-01-18T21:57:44.259Z,2.88
2023-01-18T22:00:11.686Z,2.87
2023-01-18T22:02:38.920Z,2.80
2023-01-18T22:05:08.413Z,2.72
2023-01-18T22:07:35.540Z,2.79
2023-01-18T22:10:07.168Z,2.73
2023-01-18T22:12:35.273Z,2.74
2023-01-18T22:15:04.246Z,2.75
2023-01-18T22:17:31.402Z,2.73
2023-01-18T22:19:58.605Z,2.73
2023-01-18T22:22:25.839Z,2.63
2023-01-18T22:24:53.227Z,2.61
2023-01-18T22:27:20.299Z,2.55
2023-01-18T22:29:47.495Z,2.55
2023-01-18T22:32:14.468Z,2.56
2023-01-18T22:34:41.587Z,2.44
2023-01-18T22:37:08.750Z,2.34
2023-01-18T22:39:35.896Z,2.27
2023-01-18T22:42:02.974Z,2.26
2023-01-18T22:44:30.143Z,2.13
2023-01-18T22:46:57.203Z,2.10
2023-01-18T22:49:24.245Z,1.99
2023-01-18T22:51:51.295Z,1.95
2023-01-18T22:54:22.496Z,1.98
2023-01-18T22:56:49.719Z,1.99
2023-01-18T22:59:16.897Z,1.95
2023-01-18T23:01:44.137Z,1.95
2023-01-18T23:04:11.903Z,2.06
2023-01-18T23:06:42.337Z,2.02
2023-01-18T23:09:09.870Z,2.06
2023-01-18T23:11:37.575Z,2.09
2023-01-18T23:14:23.784Z,2.18
2023-01-18T23:17:10.072Z,2.27
2023-01-18T23:19:37.339Z,2.26
2023-01-18T23:22:07.664Z,2.24
2023-01-18T23:24:35.608Z,2.27
2023-01-18T23:27:03.272Z,2.22
2023-01-18T23:29:30.415Z,2.23
2023-01-18T23:31:58.473Z,2.28
2023-01-18T23:34:26.087Z,2.30
2023-01-18T23:36:53.315Z,2.32
2023-01-18T23:39:39.307Z,2.34
2023-01-18T23:42:25.313Z,2.37
2023-01-18T23:45:11.311Z,2.44
2023-01-18T23:47:56.926Z,2.46
2023-01-18T23:50:42.904Z,2.45
2023-01-18T23:53:29.791Z,2.52
2023-01-18T23:55:57.654Z,2.54
2023-01-18T23:58:24.967Z,2.48
